Time;durP1;ratioP1;P1;durP2;ratioP2;P2;SDS_P1;SDS_P2;PMS_P1;PMS_P2;Temp;Humidity;BMP_temperature;BMP_pressure;BME280_temperature;BME280_humidity;BME280_pressure;Samples;Min_cycle;Max_cycle;Signal;HPM_P1;HPM_P2
2022/01/08 00:01:27;;;;;;;0.30;0.30;;;2.70;99.90;;;2.43;100.00;100004.75;4913400;29;20213;-81
2022/01/08 00:03:55;;;;;;;0.20;0.20;;;2.70;99.90;;;2.45;100.00;99999.59;4927383;29;20218;-80
2022/01/08 00:06:23;;;;;;;0.40;0.40;;;2.70;99.90;;;2.44;100.00;99998.72;4927721;29;20262;-80
2022/01/08 00:08:51;;;;;;;0.20;0.20;;;2.70;99.90;;;2.43;100.00;99999.53;4927005;29;20206;-80
2022/01/08 00:11:21;;;;;;;0.30;0.30;;;2.70;99.90;;;2.42;100.00;100002.09;4916726;29;20214;-80
2022/01/08 00:13:49;;;;;;;0.30;0.30;;;2.70;99.90;;;2.44;100.00;99995.22;4933767;29;20221;-80
2022/01/08 00:16:17;;;;;;;0.30;0.30;;;2.70;99.90;;;2.47;100.00;99990.09;4930624;29;20226;-80
2022/01/08 00:18:45;;;;;;;0.22;0.22;;;2.70;99.90;;;2.50;100.00;99982.38;4939918;29;20210;-80
2022/01/08 00:21:13;;;;;;;0.30;0.30;;;2.70;99.90;;;2.48;100.00;99976.22;4911149;29;20218;-81
2022/01/08 00:23:41;;;;;;;0.40;0.40;;;2.70;99.90;;;2.45;100.00;99966.56;4941020;29;20217;-80
2022/01/08 00:26:09;;;;;;;0.30;0.30;;;2.70;99.90;;;2.44;100.00;99966.50;4938732;29;20238;-81
2022/01/08 00:28:37;;;;;;;0.40;0.40;;;2.70;99.90;;;2.44;100.00;99958.69;4910522;29;20214;-80
2022/01/08 00:31:05;;;;;;;0.30;0.30;;;2.70;99.90;;;2.43;100.00;99960.41;4921783;28;20205;-80
2022/01/08 00:33:33;;;;;;;0.20;0.20;;;2.70;99.90;;;2.45;100.00;99957.84;4918352;29;20222;-80
2022/01/08 00:36:01;;;;;;;0.25;0.25;;;2.70;99.90;;;2.47;100.00;99945.72;4911026;29;20226;-80
2022/01/08 00:38:29;;;;;;;0.40;0.40;;;2.70;99.90;;;2.47;100.00;99949.22;4907521;29;20222;-80
2022/01/08 00:40:57;;;;;;;0.30;0.30;;;2.70;99.90;;;2.47;100.00;99941.41;4913392;29;20209;-80
2022/01/08 00:43:25;;;;;;;0.40;0.40;;;2.70;99.90;;;2.45;100.00;99944.81;4922089;29;20688;-80
2022/01/08 00:45:53;;;;;;;0.40;0.40;;;2.70;99.90;;;2.44;100.00;99945.63;4914944;29;20230;-80
2022/01/08 00:48:21;;;;;;;0.40;0.40;;;2.70;99.90;;;2.42;100.00;99947.31;4916814;29;20220;-80
2022/01/08 00:50:52;;;;;;;0.40;0.40;;;2.70;99.90;;;2.41;100.00;99948.13;4927899;29;20203;-80
2022/01/08 00:53:24;;;;;;;0.30;0.30;;;2.70;99.90;;;2.41;100.00;99948.13;4924625;29;20210;-79
2022/01/08 00:55:52;;;;;;;0.40;0.40;;;2.70;99.90;;;2.41;100.00;99942.91;4932132;29;20230;-80
2022/01/08 00:58:20;;;;;;;0.30;0.30;;;2.70;99.90;;;2.38;100.00;99943.72;4916369;29;20207;-80
2022/01/08 01:00:48;;;;;;;0.40;0.40;;;2.60;99.90;;;2.40;100.00;99941.16;4923843;28;20222;-80
2022/01/08 01:03:16;;;;;;;0.30;0.30;;;2.70;99.90;;;2.42;100.00;99947.31;4951235;29;20206;-80
2022/01/08 01:05:45;;;;;;;0.82;0.60;;;2.60;99.90;;;2.41;100.00;99942.91;4934809;23;20258;-81
2022/01/08 01:08:16;;;;;;;0.45;0.45;;;2.50;99.90;;;2.37;100.00;99931.50;4915320;28;20202;-81
2022/01/08 01:10:44;;;;;;;0.50;0.50;;;2.50;99.90;;;2.40;100.00;99934.19;4933064;28;20216;-81
2022/01/08 01:13:12;;;;;;;0.50;0.50;;;2.60;99.90;;;2.39;100.00;99936.75;4899458;28;20214;-82
2022/01/08 01:15:40;;;;;;;0.60;0.60;;;2.70;99.90;;;2.41;100.00;99938.59;4930919;28;20257;-81
2022/01/08 01:18:11;;;;;;;0.38;0.38;;;2.70;99.90;;;2.40;100.00;99935.94;4914715;29;20217;-81
2022/01/08 01:20:40;;;;;;;0.50;0.50;;;2.60;99.90;;;2.43;100.00;99939.53;4918297;29;20589;-81
2022/01/08 01:23:19;;;;;;;0.70;0.70;;;2.70;99.90;;;2.42;100.00;99936.88;4917022;28;20210;-81
2022/01/08 01:25:52;;;;;;;0.75;0.75;;;2.70;99.90;;;2.43;100.00;99936.91;4930481;28;20233;-81
2022/01/08 01:28:42;;;;;;;0.50;0.50;;;2.70;99.90;;;2.46;100.00;99939.63;4935483;28;20206;-80
2022/01/08 01:48:58;;;;;;;0.60;0.60;;;2.70;99.90;;;2.60;100.00;99918.31;4952852;28;20217;-79
2022/01/08 01:51:26;;;;;;;0.60;0.60;;;2.70;99.90;;;2.60;100.00;99914.00;4915662;28;20217;-79
2022/01/08 01:53:55;;;;;;;0.40;0.40;;;2.80;99.90;;;2.58;100.00;99913.03;4932860;29;20613;-79
2022/01/08 01:56:23;;;;;;;0.50;0.50;;;2.80;99.90;;;2.58;100.00;99911.31;4949312;28;20238;-79
2022/01/08 01:58:51;;;;;;;0.85;0.73;;;2.80;99.90;;;2.61;100.00;99912.28;4917599;28;20214;-79
2022/01/08 02:01:19;;;;;;;0.60;0.60;;;2.80;99.90;;;2.60;100.00;99907.88;4949629;28;20205;-79
2022/01/08 02:03:47;;;;;;;0.57;0.57;;;3.30;99.90;;;2.58;100.00;99902.59;4916488;29;20214;-79
2022/01/08 02:06:15;;;;;;;0.70;0.70;;;2.80;99.90;;;2.63;100.00;99908.00;4933163;29;20245;-79
2022/01/08 02:08:48;;;;;;;0.60;0.60;;;;;;;2.68;100.00;99917.75;4948369;28;20202;-79
2022/01/08 02:11:19;;;;;;;0.50;0.50;;;;;;;2.68;100.00;99907.31;4934554;29;20221;-79
2022/01/08 02:13:51;;;;;;;0.40;0.40;;;2.90;99.90;;;2.68;100.00;99909.94;4928413;29;20217;-79
2022/01/08 02:16:19;;;;;;;0.55;0.55;;;2.80;99.90;;;2.67;100.00;99902.94;4929922;29;20225;-79
2022/01/08 02:18:50;;;;;;;0.70;0.70;;;2.90;99.90;;;2.68;100.00;99903.81;4901675;29;20209;-79
2022/01/08 02:21:19;;;;;;;0.50;0.50;;;3.00;99.90;;;2.67;100.00;99896.81;4949887;28;20210;-79
2022/01/08 02:23:48;;;;;;;0.30;0.30;;;2.90;99.90;;;2.64;100.00;99888.91;4927582;29;20225;-80
2022/01/08 02:26:16;;;;;;;0.50;0.50;;;2.90;99.90;;;2.58;100.00;99893.03;4942858;28;20264;-79
2022/01/08 02:28:44;;;;;;;0.63;0.63;;;2.80;99.90;;;2.53;100.00;99876.34;4932432;29;20233;-80
2022/01/08 02:31:23;;;;;;;0.55;0.55;;;2.80;99.90;;;2.49;100.00;99864.03;4939688;29;20206;-80
2022/01/08 02:33:53;;;;;;;0.90;0.90;;;2.80;99.90;;;2.47;100.00;99864.84;4957148;28;20226;-79
2022/01/08 02:36:20;;;;;;;0.77;0.77;;;3.10;99.90;;;2.46;100.00;99847.41;4921849;29;20229;-79
2022/01/08 02:38:50;;;;;;;1.08;1.08;;;2.70;99.90;;;2.43;100.00;99850.81;4936996;28;20589;-79
2022/01/08 02:41:17;;;;;;;0.65;0.65;;;2.70;99.90;;;2.40;100.00;99855.91;4938033;29;20210;-78
2022/01/08 02:43:52;;;;;;;0.60;0.60;;;2.70;99.90;;;2.36;100.00;99853.16;4921807;29;20221;-79
2022/01/08 02:46:21;;;;;;;0.38;0.38;;;2.70;99.90;;;2.30;100.00;99835.59;4935213;29;20229;-78
2022/01/08 02:48:50;;;;;;;0.40;0.40;;;;;;;2.24;100.00;99831.06;4936319;29;20234;-79
2022/01/08 02:51:31;;;;;;;0.70;0.70;;;2.50;99.90;;;2.23;100.00;99828.41;4927072;29;20544;-79
2022/01/08 02:53:59;;;;;;;0.70;0.70;;;;;;;2.20;100.00;99829.19;4938932;29;20210;-79
2022/01/08 02:56:30;;;;;;;0.60;0.60;;;2.50;99.90;;;2.18;100.00;99832.59;4924227;29;20233;-79
2022/01/08 02:59:00;;;;;;;0.32;0.32;;;2.30;99.90;;;2.16;100.00;99829.03;4915851;29;20206;-78
2022/01/08 03:01:31;;;;;;;0.80;0.80;;;;;;;2.14;100.00;99822.88;4916780;29;20218;-78
2022/01/08 03:04:04;;;;;;;0.80;0.80;;;2.40;99.90;;;2.16;100.00;99818.59;4922832;29;20213;-78
2022/01/08 03:06:36;;;;;;;0.60;0.60;;;;;;;2.12;100.00;99820.22;4948738;29;20245;-78
2022/01/08 03:09:37;;;;;;;0.70;0.70;;;2.40;99.90;;;2.11;100.00;99826.28;4933260;29;20233;-80
2022/01/08 03:12:11;;;;;;;0.50;0.50;;;2.40;99.90;;;2.11;100.00;99830.63;4917507;29;20206;-78
2022/01/08 03:14:45;;;;;;;1.15;0.85;;;2.40;99.90;;;2.12;100.00;99829.78;4931554;29;20373;-79
2022/01/08 03:17:16;;;;;;;0.70;0.70;;;;;;;2.13;100.00;99828.94;4948618;28;20502;-79
2022/01/08 03:19:52;;;;;;;0.50;0.50;;;2.40;99.90;;;2.12;100.00;99842.81;4949825;29;20220;-79
2022/01/08 03:22:40;;;;;;;0.70;0.70;;;2.30;99.90;;;2.11;100.00;99841.94;4918764;29;20214;-79
2022/01/08 03:25:21;;;;;;;0.43;0.43;;;2.30;99.90;;;2.12;100.00;99848.91;4931470;29;20226;-79
2022/01/08 03:27:53;;;;;;;0.30;0.30;;;;;;;2.12;100.00;99851.53;4920461;29;20222;-78
2022/01/08 03:30:30;;;;;;;0.60;0.60;;;;;;;2.15;100.00;99851.63;4930052;29;20213;-78
2022/01/08 03:32:59;;;;;;;0.30;0.30;;;;;;;2.15;100.00;99859.44;4916300;29;20325;-79
2022/01/08 03:35:27;;;;;;;0.38;0.38;;;2.40;99.90;;;2.15;100.00;99882.94;4929147;23;20227;-78
2022/01/08 03:37:55;;;;;;;0.30;0.30;;;2.40;99.90;;;2.17;100.00;99882.97;4880718;29;20234;-78
2022/01/08 03:40:23;;;;;;;0.40;0.40;;;2.80;99.90;;;2.17;100.00;99883.88;4877527;29;20219;-79
2022/01/08 03:42:51;;;;;;;0.32;0.32;;;2.40;99.90;;;2.16;100.00;99891.63;4881876;29;20206;-79
2022/01/08 03:45:19;;;;;;;0.30;0.30;;;1.70;99.90;;;2.15;100.00;99892.47;4890089;29;20246;-79
2022/01/08 03:50:18;;;;;;;0.30;0.30;;;2.40;99.90;;;2.15;100.00;99902.91;4893643;29;20786;-80
2022/01/08 03:52:46;;;;;;;0.30;0.30;;;2.40;99.90;;;2.12;100.00;99903.69;4863606;29;20204;-79
2022/01/08 03:55:14;;;;;;;0.20;0.20;;;2.90;99.90;;;2.13;100.00;99904.59;4879272;29;20231;-79
2022/01/08 03:57:41;;;;;;;0.40;0.40;;;2.60;99.90;;;2.13;100.00;99902.84;4900117;29;20234;-80
2022/01/08 04:00:10;;;;;;;0.40;0.40;;;2.70;99.90;;;2.11;100.00;99907.13;4889952;29;20223;-80
2022/01/08 04:02:41;;;;;;;0.40;0.40;;;2.40;99.90;;;2.12;100.00;99901.09;4904344;29;20207;-80
2022/01/08 04:05:09;;;;;;;0.30;0.30;;;2.80;99.90;;;2.14;100.00;99912.47;4885248;29;20246;-79
2022/01/08 04:07:37;;;;;;;0.50;0.50;;;2.40;99.90;;;2.11;100.00;99917.56;4895530;29;20235;-80
2022/01/08 04:10:07;;;;;;;0.30;0.30;;;2.50;99.90;;;1.98;100.00;99924.91;4914175;29;20208;-79
2022/01/08 04:12:46;;;;;;;0.40;0.40;;;2.40;99.90;;;1.93;100.00;99927.38;4898963;29;20216;-79
2022/01/08 04:15:51;;;;;;;0.30;0.30;;;3.40;99.90;;;1.91;100.00;99934.25;4881548;29;20227;-79
2022/01/08 04:18:09;;;;;;;0.30;0.30;;;2.30;99.90;;;1.86;100.00;99941.00;4886947;29;20224;-79
2022/01/08 04:21:59;;;;;;;0.40;0.40;;;2.20;99.90;;;1.89;100.00;99947.22;4874209;29;20211;-79
2022/01/08 04:23:37;;;;;;;0.30;0.30;;;2.20;99.90;;;1.97;100.00;99938.78;4873410;29;20216;-79
2022/01/08 04:26:05;;;;;;;0.32;0.32;;;2.20;99.90;;;1.96;100.00;99929.19;4858954;29;20236;-78
2022/01/08 04:28:32;;;;;;;0.30;0.30;;;2.40;99.90;;;1.95;100.00;99928.31;4889715;29;20232;-78
2022/01/08 04:31:01;;;;;;;0.30;0.30;;;2.20;99.90;;;1.91;100.00;99929.91;4874100;29;20215;-79
2022/01/08 04:33:29;;;;;;;0.30;0.30;;;2.60;99.90;;;1.95;100.00;99943.06;4891059;29;20232;-79
2022/01/08 04:35:57;;;;;;;0.30;0.30;;;;;;;1.95;100.00;99949.16;4893296;29;20236;-78
2022/01/08 04:38:28;;;;;;;0.30;0.30;;;2.20;99.90;;;1.96;100.00;99944.84;4890266;29;20211;-79
2022/01/08 04:40:56;;;;;;;0.47;0.47;;;;;;;1.92;100.00;99936.91;4890771;29;20204;-80
2022/01/08 04:44:44;;;;;;;0.30;0.30;;;2.20;99.90;;;1.93;100.00;99941.28;4876186;29;20220;-79
2022/01/08 04:47:15;;;;;;;0.30;0.30;;;;;;;1.96;100.00;99955.28;4888742;29;20219;-80
2022/01/08 04:49:43;;;;;;;0.30;0.30;;;2.20;99.90;;;1.97;100.00;99954.44;4875775;29;20239;-79
2022/01/08 04:52:18;;;;;;;0.30;0.30;;;;;;;1.96;100.00;99956.16;4861217;29;20677;-79
2022/01/08 04:54:47;;;;;;;2.15;0.95;;;2.20;99.90;;;1.95;100.00;99951.78;4889181;29;20208;-78
2022/01/08 04:57:18;;;;;;;0.30;0.30;;;2.10;99.90;;;1.95;100.00;99948.28;4858977;29;20227;-79
2022/01/08 04:59:47;;;;;;;0.30;0.30;;;2.20;99.90;;;2.05;100.00;99956.47;4889059;29;20216;-80
2022/01/08 05:02:21;;;;;;;0.30;0.30;;;2.20;99.90;;;1.98;100.00;99953.59;4888298;29;20223;-79
2022/01/08 05:05:29;;;;;;;0.20;0.20;;;2.20;99.90;;;1.98;100.00;99959.69;4903798;29;20220;-79
2022/01/08 05:08:07;;;;;;;0.30;0.30;;;;;;;1.98;100.00;99969.25;4879630;29;20305;-78
2022/01/08 05:11:03;;;;;;;0.32;0.32;;;2.20;99.90;;;1.97;100.00;99959.66;4873305;29;20208;-79
2022/01/08 05:14:10;;;;;;;0.30;0.30;;;2.10;99.90;;;1.90;100.00;99959.44;4877505;29;20220;-79
2022/01/08 05:16:46;;;;;;;0.40;0.40;;;2.20;99.90;;;1.95;100.00;99962.19;4865512;29;20244;-79
2022/01/08 05:19:24;;;;;;;0.40;0.40;;;1.60;99.90;;;1.96;100.00;99957.88;4898407;29;20210;-80
2022/01/08 05:21:58;;;;;;;0.30;0.30;;;3.10;99.90;;;1.91;100.00;99969.03;4874566;29;20215;-79
2022/01/08 05:24:51;;;;;;;0.35;0.35;;;2.20;99.90;;;1.93;100.00;99972.56;4893031;29;20214;-79
2022/01/08 05:27:25;;;;;;;0.35;0.35;;;;;;;2.06;100.00;99986.06;4875316;29;20223;-80
2022/01/08 05:30:09;;;;;;;0.40;0.40;;;2.20;99.90;;;2.09;100.00;99983.56;4874705;29;20254;-79
2022/01/08 05:32:44;;;;;;;0.30;0.30;;;2.30;99.90;;;2.06;100.00;99986.94;4875395;29;20215;-80
2022/01/08 05:35:12;;;;;;;0.50;0.50;;;2.20;99.90;;;2.03;100.00;100004.19;4875128;29;20231;-79
2022/01/08 05:37:41;;;;;;;0.30;0.30;;;2.30;99.90;;;2.09;100.00;100014.84;4874797;29;20211;-80
2022/01/08 05:40:10;;;;;;;0.28;0.28;;;2.30;99.90;;;2.07;100.00;100019.13;4876677;29;20219;-79
2022/01/08 05:42:39;;;;;;;0.30;0.30;;;2.30;99.90;;;2.06;100.00;100018.25;4860711;29;20215;-79
2022/01/08 05:45:08;;;;;;;0.20;0.20;;;2.30;99.90;;;2.03;100.00;100022.47;4890426;29;20232;-81
2022/01/08 05:47:37;;;;;;;0.30;0.30;;;2.30;99.90;;;2.01;100.00;100031.94;4875138;29;20211;-80
2022/01/08 05:50:08;;;;;;;0.38;0.38;;;2.30;99.90;;;2.09;100.00;100043.53;4891228;29;20239;-80
2022/01/08 05:52:36;;;;;;;0.30;0.30;;;2.30;99.90;;;2.06;100.00;100043.44;4858723;29;20208;-80
2022/01/08 05:55:05;;;;;;;0.30;0.30;;;2.40;99.90;;;2.13;100.00;100048.94;4890139;29;20252;-80
2022/01/08 05:57:33;;;;;;;0.38;0.38;;;2.30;99.90;;;2.08;100.00;100047.88;4874010;29;20212;-80
2022/01/08 06:00:03;;;;;;;0.38;0.35;;;2.30;99.90;;;2.10;100.00;100064.47;4881321;29;20216;-80
2022/01/08 06:02:36;;;;;;;0.40;0.40;;;2.30;99.90;;;2.07;100.00;100060.84;4876698;29;20212;-80
2022/01/08 06:05:06;;;;;;;0.30;0.30;;;2.60;99.90;;;2.08;100.00;100078.28;4873203;29;20232;-80
2022/01/08 06:07:34;;;;;;;0.30;0.30;;;2.30;99.90;;;2.05;100.00;100078.16;4874420;29;20227;-80
2022/01/08 06:10:04;;;;;;;0.30;0.30;;;2.40;99.90;;;2.09;100.00;100090.50;4874293;29;20239;-80
2022/01/08 06:12:32;;;;;;;0.30;0.30;;;2.30;99.90;;;2.14;100.00;100091.53;4873713;29;20219;-80
2022/01/08 06:15:00;;;;;;;0.20;0.20;;;2.30;99.90;;;2.13;100.00;100101.09;4873263;29;20236;-79
2022/01/08 06:17:28;;;;;;;0.30;0.30;;;2.50;99.90;;;2.17;100.00;100113.41;4875850;29;20205;-79
2022/01/08 06:19:56;;;;;;;0.40;0.40;;;2.40;99.90;;;2.11;100.00;100105.38;4879741;29;20220;-80
2022/01/08 06:22:24;;;;;;;0.35;0.35;;;2.50;99.90;;;2.05;100.00;100106.84;4883827;29;20599;-78
2022/01/08 06:24:52;;;;;;;0.40;0.40;;;2.30;99.90;;;2.10;100.00;100127.06;4860461;29;20224;-76
2022/01/08 06:27:21;;;;;;;0.28;0.28;;;2.30;99.90;;;2.11;100.00;100122.72;4865971;29;20219;-77
2022/01/08 06:29:49;;;;;;;0.30;0.30;;;3.00;99.90;;;2.07;100.00;100126.94;4883957;29;20231;-80
2022/01/08 06:32:17;;;;;;;0.32;0.32;;;2.30;99.90;;;2.08;100.00;100130.44;4908233;29;20207;-80
2022/01/08 06:34:45;;;;;;;1.67;0.75;;;2.20;99.90;;;2.01;100.00;100131.94;4900578;29;20200;-80
2022/01/08 06:37:13;;;;;;;0.30;0.30;;;;;;;1.94;100.00;100122.09;4900444;29;20216;-80
2022/01/08 06:39:41;;;;;;;0.30;0.30;;;2.20;99.90;;;1.97;100.00;100134.38;4907714;29;20220;-79
2022/01/08 06:42:09;;;;;;;0.30;0.30;;;2.80;99.90;;;2.01;100.00;100146.69;4899832;29;20219;-80
2022/01/08 06:44:37;;;;;;;0.73;0.50;;;2.20;99.90;;;2.15;100.00;100156.81;4895908;29;20215;-80
2022/01/08 06:47:08;;;;;;;0.40;0.40;;;;;;;2.10;100.00;100145.31;4885077;29;20223;-80
2022/01/08 06:49:38;;;;;;;0.40;0.40;;;2.20;99.90;;;2.05;100.00;100141.66;4882514;29;20714;-79
2022/01/08 06:52:06;;;;;;;0.40;0.40;;;2.50;99.90;;;1.99;100.00;100138.81;4883764;29;20212;-80
2022/01/08 06:54:34;;;;;;;0.40;0.40;;;2.30;99.90;;;1.99;100.00;100145.75;4882764;29;20599;-80
2022/01/08 06:57:02;;;;;;;0.40;0.40;;;2.30;99.90;;;2.03;100.00;100145.91;4873681;29;20203;-80
2022/01/08 06:59:30;;;;;;;0.40;0.40;;;2.20;99.90;;;2.04;100.00;100160.75;4879079;29;20211;-80
2022/01/08 07:01:58;;;;;;;0.40;0.40;;;2.70;99.90;;;1.91;100.00;100146.34;4886907;29;20212;-80
2022/01/08 07:04:26;;;;;;;0.55;0.55;;;2.10;99.90;;;1.92;100.00;100150.72;4867500;29;20223;-80
2022/01/08 07:06:54;;;;;;;0.40;0.40;;;;;;;1.87;100.00;100154.88;4885394;29;20243;-81
2022/01/08 07:09:22;;;;;;;0.40;0.40;;;2.10;99.90;;;1.76;100.00;100143.13;4883283;29;20231;-81
2022/01/08 07:11:51;;;;;;;0.38;0.38;;;;;;;1.74;100.00;100147.41;4877470;29;20217;-81
2022/01/08 07:14:18;;;;;;;0.40;0.40;;;2.00;99.90;;;1.58;100.00;100142.41;4888703;29;20220;-80
2022/01/08 07:16:48;;;;;;;0.40;0.40;;;2.00;99.90;;;1.65;100.00;100169.59;4892656;29;20228;-81
2022/01/08 07:19:18;;;;;;;0.30;0.30;;;;;;;1.58;100.00;100171.06;4890602;29;20211;-81
2022/01/08 07:21:46;;;;;;;0.40;0.40;;;1.90;99.90;;;1.60;100.00;100172.91;4903484;29;20215;-81
2022/01/08 07:24:14;;;;;;;0.40;0.40;;;2.30;99.90;;;1.54;100.00;100172.66;4896753;29;20221;-81
2022/01/08 07:26:46;;;;;;;0.35;0.35;;;1.90;99.90;;;1.47;100.00;100173.25;4896699;29;20704;-81
2022/01/08 07:29:45;;;;;;;0.43;0.43;;;1.80;99.90;;;1.44;100.00;100187.88;4917666;29;20228;-80
2022/01/08 07:33:00;;;;;;;0.30;0.30;;;1.80;99.90;;;1.58;100.00;100221.47;4903531;29;20211;-81
2022/01/08 07:35:28;;;;;;;0.30;0.30;;;1.70;99.90;;;1.53;100.00;100214.31;4897619;29;20686;-81
2022/01/08 07:38:07;;;;;;;0.40;0.40;;;3.30;99.90;;;1.51;100.00;100222.06;4880824;29;20571;-81
2022/01/08 07:40:39;;;;;;;0.40;0.40;;;;;;;1.41;100.00;100221.59;4916425;29;20207;-81
2022/01/08 07:43:09;;;;;;;0.30;0.30;;;;;;;1.45;100.00;100240.03;4875329;29;20215;-81
2022/01/08 07:45:37;;;;;;;0.30;0.30;;;0.80;99.90;;;1.42;100.00;100241.63;4889483;29;20231;-81
2022/01/08 07:48:20;;;;;;;0.40;0.40;;;3.20;99.90;;;1.29;100.00;100234.97;4894439;29;20208;-80
2022/01/08 07:51:03;;;;;;;0.40;0.40;;;2.00;99.90;;;1.36;100.00;100259.59;4898340;29;20251;-82
2022/01/08 08:01:39;;;;;;;2.70;1.30;;;;;;;1.36;100.00;100277.84;4860324;29;20720;-82
2022/01/08 08:04:29;;;;;;;0.30;0.30;;;1.60;99.90;;;1.43;100.00;100290.31;4867812;29;20216;-81
2022/01/08 08:07:43;;;;;;;0.30;0.30;;;1.50;99.90;;;1.46;100.00;100298.25;4901616;29;20223;-82
2022/01/08 08:10:27;;;;;;;0.30;0.30;;;1.60;99.90;;;1.46;100.00;100300.84;4905605;29;20227;-82
2022/01/08 08:13:01;;;;;;;0.30;0.30;;;;;;;1.46;100.00;100312.19;4901020;29;20216;-81
2022/01/08 08:15:29;;;;;;;0.32;0.32;;;1.60;99.90;;;1.42;100.00;100311.97;4912085;29;20236;-81
2022/01/08 08:18:12;;;;;;;0.35;0.35;;;1.60;99.90;;;1.38;100.00;100313.56;4902454;29;20242;-82
2022/01/08 08:20:42;;;;;;;0.40;0.40;;;1.60;99.90;;;1.38;100.00;100326.59;4928589;29;20207;-80
2022/01/08 08:23:13;;;;;;;0.20;0.20;;;1.60;99.90;;;1.40;100.00;100331.88;4867945;29;20220;-81
2022/01/08 08:25:42;;;;;;;0.40;0.40;;;1.50;99.90;;;1.45;100.00;100341.66;4866816;29;20220;-80
2022/01/08 08:28:13;;;;;;;0.40;0.40;;;2.40;99.90;;;1.36;100.00;100330.84;4881311;29;20208;-81
2022/01/08 08:30:41;;;;;;;0.40;0.40;;;1.50;99.90;;;1.32;100.00;100338.44;4884677;29;20740;-81
2022/01/08 08:33:10;;;;;;;0.30;0.30;;;2.40;99.90;;;1.31;100.00;100350.59;4867502;29;20204;-82
2022/01/08 08:35:41;;;;;;;0.30;0.30;;;1.40;99.90;;;1.36;100.00;100356.00;4883388;29;20247;-82
2022/01/08 08:38:11;;;;;;;0.30;0.30;;;1.90;99.90;;;1.45;100.00;100352.09;4883646;29;20208;-82
2022/01/08 08:40:40;;;;;;;0.40;0.40;;;2.20;99.90;;;1.45;100.00;100359.00;4865455;29;20204;-81
2022/01/08 08:43:09;;;;;;;0.38;0.38;;;1.60;99.90;;;1.51;100.00;100364.50;4864996;29;20678;-81
2022/01/08 08:45:40;;;;;;;0.30;0.30;;;1.60;99.90;;;1.80;100.00;100391.81;4870316;29;20596;-81
2022/01/08 08:48:08;;;;;;;0.40;0.40;;;2.70;99.90;;;1.93;100.00;100388.91;4865766;29;20340;-81
2022/01/08 08:50:36;;;;;;;0.30;0.30;;;2.30;99.90;;;1.89;100.00;100371.34;4867426;29;20231;-81
2022/01/08 08:53:06;;;;;;;0.30;0.30;;;1.90;99.90;;;1.89;100.00;100368.75;4880683;29;20234;-81
2022/01/08 08:55:34;;;;;;;0.40;0.40;;;;;;;1.87;100.00;100362.56;4865318;29;20239;-82
2022/01/08 08:58:03;;;;;;;0.40;0.40;;;;;;;1.89;100.00;100350.50;4898158;29;20220;-82
2022/01/08 09:00:31;;;;;;;0.38;0.38;;;2.00;99.90;;;1.82;100.00;100343.25;4896606;29;20239;-82
2022/01/08 09:03:10;;;;;;;0.40;0.40;;;2.10;99.90;;;1.81;100.00;100338.84;4896557;29;20215;-82
2022/01/08 09:05:39;;;;;;;0.38;0.38;;;;;;;1.96;100.00;100357.75;4880825;29;20239;-81
2022/01/08 09:08:16;;;;;;;0.35;0.35;;;2.00;99.90;;;2.09;100.00;100372.19;4876655;29;20212;-82
2022/01/08 09:10:48;;;;;;;0.30;0.30;;;;;;;2.13;100.00;100376.72;4895057;29;20238;-82
2022/01/08 09:13:20;;;;;;;0.30;0.30;;;2.10;99.90;;;2.15;100.00;100364.63;4897077;29;20215;-80
2022/01/08 09:15:48;;;;;;;0.30;0.30;;;;;;;2.24;100.00;100376.31;4879645;29;20239;-81
2022/01/08 09:18:17;;;;;;;0.30;0.30;;;2.20;99.90;;;2.29;100.00;100365.19;4865935;29;20208;-81
2022/01/08 09:20:49;;;;;;;0.30;0.30;;;;;;;2.34;100.00;100361.94;4894116;29;20204;-81
2022/01/08 09:23:17;;;;;;;0.30;0.30;;;;;;;2.30;100.00;100357.41;4866006;29;20216;-81
2022/01/08 09:25:56;;;;;;;0.43;0.43;;;2.40;99.90;;;2.33;100.00;100354.03;4870818;29;20235;-81
2022/01/08 09:28:26;;;;;;;0.40;0.40;;;;;;;2.37;100.00;100359.44;4868416;29;20208;-81
2022/01/08 09:30:55;;;;;;;0.30;0.30;;;2.40;99.90;;;2.45;100.00;100357.16;4897841;29;20227;-81
2022/01/08 09:33:26;;;;;;;0.30;0.30;;;2.50;99.90;;;2.49;100.00;100349.50;4924787;29;20211;-81
2022/01/08 09:35:55;;;;;;;0.20;0.20;;;;;;;2.54;100.00;100366.22;4926139;29;20623;-80
2022/01/08 09:38:23;;;;;;;0.40;0.40;;;2.60;99.90;;;2.61;100.00;100370.00;4899415;29;20212;-82
2022/01/08 09:40:54;;;;;;;0.40;0.40;;;2.70;99.90;;;2.65;100.00;100358.84;4864536;29;20218;-81
2022/01/08 09:43:23;;;;;;;0.20;0.20;;;;;;;2.65;100.00;100343.19;4865230;29;20216;-80
2022/01/08 09:45:51;;;;;;;0.30;0.30;;;2.70;99.90;;;2.66;100.00;100334.53;4912439;29;20232;-80
2022/01/08 09:48:20;;;;;;;0.20;0.20;;;;;;;2.68;100.00;100332.88;4909722;29;20213;-81
2022/01/08 09:50:48;;;;;;;0.30;0.30;;;;;;;2.63;100.00;100316.13;4882364;29;20227;-82
2022/01/08 09:53:16;;;;;;;0.30;0.30;;;2.80;99.90;;;2.78;100.00;100344.56;4912443;29;20212;-80
2022/01/08 09:55:47;;;;;;;0.32;0.32;;;;;;;2.82;100.00;100331.69;4896197;29;20231;-79
2022/01/08 09:58:15;;;;;;;0.38;0.38;;;2.80;99.90;;;2.84;100.00;100313.44;4897273;29;20227;-80
2022/01/08 10:00:53;;;;;;;0.30;0.30;;;2.90;99.90;;;2.90;100.00;100321.53;4884056;29;20215;-82
2022/01/08 10:03:26;;;;;;;0.47;0.47;;;3.00;99.90;;;3.01;100.00;100330.66;4902298;29;20222;-81
2022/01/08 10:06:01;;;;;;;0.40;0.40;;;3.00;99.90;;;3.00;100.00;100307.97;4891280;29;20236;-82
2022/01/08 10:08:47;;;;;;;0.40;0.40;;;3.10;99.90;;;3.13;100.00;100317.16;4884925;29;20200;-81
2022/01/08 10:11:18;;;;;;;0.30;0.30;;;3.10;99.90;;;3.16;100.00;100317.25;4879038;29;20254;-82
2022/01/08 10:14:01;;;;;;;0.38;0.38;;;3.20;99.90;;;3.23;100.00;100311.44;4871402;29;20204;-80
2022/01/08 10:19:25;;;;;;;0.40;0.40;;;3.20;99.90;;;3.32;100.00;100295.19;4902704;29;20227;-81
2022/01/08 10:21:55;;;;;;;0.30;0.30;;;3.30;99.90;;;3.42;100.00;100285.09;4899223;29;20216;-81
2022/01/08 10:24:29;;;;;;;0.30;0.30;;;3.50;99.90;;;3.38;100.00;100256.19;4884898;29;20220;-81
2022/01/08 10:27:06;;;;;;;0.30;0.30;;;3.40;99.90;;;3.26;100.00;100224.41;4899593;29;20608;-81
2022/01/08 10:29:35;;;;;;;0.38;0.38;;;3.40;99.90;;;3.35;100.00;100267.44;4899312;29;20698;-81
2022/01/08 10:32:07;;;;;;;0.47;0.47;;;3.40;99.90;;;3.21;100.00;100247.75;4869222;29;20242;-80
2022/01/08 10:34:36;;;;;;;0.40;0.40;;;3.40;99.90;;;3.13;100.00;100229.22;4900855;29;20204;-81
2022/01/08 10:37:06;;;;;;;0.30;0.30;;;3.40;99.90;;;3.16;100.00;100255.44;4886517;29;20224;-81
2022/01/08 10:39:38;;;;;;;0.28;0.28;;;3.30;99.90;;;3.31;100.00;100281.22;4922087;29;20204;-81
2022/01/08 10:42:13;;;;;;;0.30;0.30;;;3.50;99.90;;;3.43;100.00;100293.84;4884671;29;20215;-82
2022/01/08 10:44:44;;;;;;;1.75;0.93;;;3.60;99.90;;;3.69;100.00;100303.47;4881564;29;20207;-82
2022/01/08 10:47:20;;;;;;;0.30;0.30;;;3.60;99.90;;;3.67;100.00;100293.81;4919552;29;20231;-82
2022/01/08 10:50:02;;;;;;;0.30;0.30;;;3.80;99.90;;;3.72;100.00;100306.19;4878363;29;20216;-81
2022/01/08 10:52:43;;;;;;;0.40;0.40;;;3.70;99.90;;;3.71;100.00;100307.03;4908186;29;20236;-80
2022/01/08 10:55:11;;;;;;;0.40;0.40;;;3.80;99.90;;;3.82;100.00;100305.66;4883112;29;20231;-82
2022/01/08 10:57:47;;;;;;;0.45;0.45;;;3.90;99.90;;;3.81;100.00;100296.03;4881309;29;20209;-82
2022/01/08 11:00:15;;;;;;;0.32;0.32;;;3.90;99.90;;;3.66;100.00;100272.00;4911369;29;20204;-81
2022/01/08 11:02:53;;;;;;;0.57;0.50;;;3.80;99.90;;;3.54;100.00;100288.16;4885034;29;20591;-82
2022/01/08 11:05:21;;;;;;;0.32;0.32;;;;;;;3.47;100.00;100277.44;4882564;29;20240;-81
2022/01/08 11:07:53;;;;;;;0.30;0.30;;;3.80;99.90;;;3.56;100.00;100300.38;4891474;29;20219;-84
2022/01/08 11:10:23;;;;;;;1.02;1.02;;;;;;;3.63;100.00;100300.66;4884023;29;20209;-81
2022/01/08 11:12:58;;;;;;;0.50;0.40;;;3.80;99.90;;;3.70;100.00;100318.34;4881712;29;20236;-83
2022/01/08 11:15:48;;;;;;;0.30;0.30;;;3.80;99.90;;;3.66;100.00;100308.59;4888072;29;20242;-81
2022/01/08 11:18:19;;;;;;;0.40;0.40;;;3.80;99.90;;;3.64;100.00;100310.28;4884136;29;20216;-81
2022/01/08 11:20:56;;;;;;;0.20;0.20;;;3.80;99.90;;;3.53;100.00;100291.59;4896007;29;20207;-80
2022/01/08 11:23:31;;;;;;;0.30;0.30;;;3.80;99.90;;;3.45;100.00;100282.59;4867599;29;20213;-80
2022/01/08 11:25:59;;;;;;;0.40;0.40;;;3.70;99.90;;;3.57;100.00;100312.63;4877135;29;20231;-80